sensor_id;sensor_type;location;lat;lon;timestamp;pressure;altitude;pressure_sealevel;temperature;humidity
17607;BME280;69222;52.242;20.980;2023-07-22T00:01:33;99726.59;;;20.18;58.34
17607;BME280;69222;52.242;20.980;2023-07-22T00:04:01;99717.66;;;20.22;58.90
17607;BME280;69222;52.242;20.980;2023-07-22T00:06:29;99712.25;;;20.25;59.50
17607;BME280;69222;52.242;20.980;2023-07-22T00:08:58;99711.16;;;20.30;60.32
17607;BME280;69222;52.242;20.980;2023-07-22T00:11:27;99708.34;;;20.33;60.60
17607;BME280;69222;52.242;20.980;2023-07-22T00:13:55;99709.09;;;20.35;60.61
17607;BME280;69222;52.242;20.980;2023-07-22T00:16:23;99709.94;;;20.35;61.23
17607;BME280;69222;52.242;20.980;2023-07-22T00:18:51;99712.47;;;20.37;61.39
17607;BME280;69222;52.242;20.980;2023-07-22T00:21:20;99715.09;;;20.37;61.32
17607;BME280;69222;52.242;20.980;2023-07-22T00:23:48;99710.88;;;20.34;60.82
17607;BME280;69222;52.242;20.980;2023-07-22T00:26:16;99709.09;;;20.35;60.62
17607;BME280;69222;52.242;20.980;2023-07-22T00:28:45;99711.16;;;20.30;60.19
17607;BME280;69222;52.242;20.980;2023-07-22T00:31:13;99709.63;;;20.25;60.14
17607;BME280;69222;52.242;20.980;2023-07-22T00:33:41;99707.94;;;20.24;60.35
17607;BME280;69222;52.242;20.980;2023-07-22T00:36:09;99710.53;;;20.24;61.03
17607;BME280;69222;52.242;20.980;2023-07-22T00:38:38;99710.66;;;20.23;60.65
17607;BME280;69222;52.242;20.980;2023-07-22T00:41:06;99705.50;;;20.21;60.74
17607;BME280;69222;52.242;20.980;2023-07-22T00:43:34;99701.19;;;20.20;60.92
17607;BME280;69222;52.242;20.980;2023-07-22T00:46:04;99696.13;;;20.17;60.70
17607;BME280;69222;52.242;20.980;2023-07-22T00:48:32;99698.84;;;20.16;61.09
17607;BME280;69222;52.242;20.980;2023-07-22T00:51:00;99695.38;;;20.15;60.98
17607;BME280;69222;52.242;20.980;2023-07-22T00:53:29;99697.22;;;20.13;60.47
17607;BME280;69222;52.242;20.980;2023-07-22T00:55:57;99701.72;;;20.11;60.98
17607;BME280;69222;52.242;20.980;2023-07-22T00:58:25;99706.13;;;20.11;60.88
17607;BME280;69222;52.242;20.980;2023-07-22T01:00:53;99706.03;;;20.12;61.36
17607;BME280;69222;52.242;20.980;2023-07-22T01:03:22;99703.41;;;20.12;60.97
17607;BME280;69222;52.242;20.980;2023-07-22T01:05:53;99698.34;;;20.09;60.95
17607;BME280;69222;52.242;20.980;2023-07-22T01:08:21;99698.34;;;20.09;61.01
17607;BME280;69222;52.242;20.980;2023-07-22T01:10:49;99686.94;;;20.10;61.23
17607;BME280;69222;52.242;20.980;2023-07-22T01:13:17;99678.34;;;20.08;61.27
17607;BME280;69222;52.242;20.980;2023-07-22T01:15:46;99680.19;;;20.06;61.58
17607;BME280;69222;52.242;20.980;2023-07-22T01:18:15;99688.25;;;20.03;61.84
17607;BME280;69222;52.242;20.980;2023-07-22T01:20:45;99685.69;;;20.01;62.02
17607;BME280;69222;52.242;20.980;2023-07-22T01:23:16;99677.78;;;20.03;61.89
17607;BME280;69222;52.242;20.980;2023-07-22T01:25:44;99673.47;;;20.02;62.16
17607;BME280;69222;52.242;20.980;2023-07-22T01:28:12;99666.97;;;19.93;62.64
17607;BME280;69222;52.242;20.980;2023-07-22T01:30:40;99664.63;;;19.89;62.42
17607;BME280;69222;52.242;20.980;2023-07-22T01:33:08;99657.13;;;19.83;62.78
17607;BME280;69222;52.242;20.980;2023-07-22T01:35:37;99649.44;;;19.79;63.17
17607;BME280;69222;52.242;20.980;2023-07-22T01:38:05;99650.38;;;19.78;63.04
17607;BME280;69222;52.242;20.980;2023-07-22T01:40:36;99647.94;;;19.75;62.94
17607;BME280;69222;52.242;20.980;2023-07-22T01:43:04;99652.38;;;19.73;63.17
17607;BME280;69222;52.242;20.980;2023-07-22T01:45:32;99653.16;;;19.75;63.38
17607;BME280;69222;52.242;20.980;2023-07-22T01:48:00;99647.16;;;19.73;63.47
17607;BME280;69222;52.242;20.980;2023-07-22T01:50:28;99643.97;;;19.68;63.53
17607;BME280;69222;52.242;20.980;2023-07-22T01:52:56;99647.53;;;19.67;63.76
17607;BME280;69222;52.242;20.980;2023-07-22T01:55:24;99639.69;;;19.67;64.31
17607;BME280;69222;52.242;20.980;2023-07-22T01:57:54;99644.91;;;19.67;64.05
17607;BME280;69222;52.242;20.980;2023-07-22T02:00:21;99647.69;;;19.64;63.96
17607;BME280;69222;52.242;20.980;2023-07-22T02:02:49;99652.16;;;19.62;64.16
17607;BME280;69222;52.242;20.980;2023-07-22T02:05:18;99649.75;;;19.58;64.16
17607;BME280;69222;52.242;20.980;2023-07-22T02:07:46;99651.63;;;19.55;64.35
17607;BME280;69222;52.242;20.980;2023-07-22T02:10:14;99649.25;;;19.51;64.38
17607;BME280;69222;52.242;20.980;2023-07-22T02:12:41;99651.28;;;19.46;64.54
17607;BME280;69222;52.242;20.980;2023-07-22T02:15:11;99652.38;;;19.42;64.85
17607;BME280;69222;52.242;20.980;2023-07-22T02:17:39;99655.06;;;19.40;64.79
17607;BME280;69222;52.242;20.980;2023-07-22T02:20:08;99655.16;;;19.39;65.10
17607;BME280;69222;52.242;20.980;2023-07-22T02:22:36;99655.31;;;19.36;65.30
17607;BME280;69222;52.242;20.980;2023-07-22T02:25:05;99651.75;;;19.37;65.57
17607;BME280;69222;52.242;20.980;2023-07-22T02:27:34;99651.59;;;19.40;65.25
17607;BME280;69222;52.242;20.980;2023-07-22T02:30:02;99648.09;;;19.41;65.27
17607;BME280;69222;52.242;20.980;2023-07-22T02:32:32;99649.00;;;19.40;65.18
17607;BME280;69222;52.242;20.980;2023-07-22T02:35:00;99654.31;;;19.38;65.13
17607;BME280;69222;52.242;20.980;2023-07-22T02:37:28;99650.25;;;19.33;65.26
17607;BME280;69222;52.242;20.980;2023-07-22T02:39:56;99651.44;;;19.27;65.69
17607;BME280;69222;52.242;20.980;2023-07-22T02:42:24;99659.69;;;19.19;65.81
17607;BME280;69222;52.242;20.980;2023-07-22T02:44:52;99655.56;;;19.15;66.48
17607;BME280;69222;52.242;20.980;2023-07-22T02:47:20;99647.03;;;19.12;66.39
17607;BME280;69222;52.242;20.980;2023-07-22T02:49:49;99648.97;;;19.08;66.36
17607;BME280;69222;52.242;20.980;2023-07-22T02:52:17;99648.19;;;19.06;66.66
17607;BME280;69222;52.242;20.980;2023-07-22T02:55:04;99646.75;;;19.00;66.65
17607;BME280;69222;52.242;20.980;2023-07-22T02:57:33;99646.91;;;18.97;67.08
17607;BME280;69222;52.242;20.980;2023-07-22T03:00:02;99642.09;;;18.90;67.06
17607;BME280;69222;52.242;20.980;2023-07-22T03:02:34;99642.50;;;18.82;67.69
17607;BME280;69222;52.242;20.980;2023-07-22T03:05:05;99640.28;;;18.74;67.89
17607;BME280;69222;52.242;20.980;2023-07-22T03:07:34;99643.88;;;18.72;68.19
17607;BME280;69222;52.242;20.980;2023-07-22T03:10:03;99643.22;;;18.67;68.42
17607;BME280;69222;52.242;20.980;2023-07-22T03:12:31;99641.66;;;18.64;68.69
17607;BME280;69222;52.242;20.980;2023-07-22T03:14:59;99637.41;;;18.62;68.90
17607;BME280;69222;52.242;20.980;2023-07-22T03:17:27;99634.91;;;18.60;69.11
17607;BME280;69222;52.242;20.980;2023-07-22T03:19:56;99638.59;;;18.56;69.40
17607;BME280;69222;52.242;20.980;2023-07-22T03:22:25;99637.66;;;18.57;69.49
17607;BME280;69222;52.242;20.980;2023-07-22T03:24:53;99639.34;;;18.58;69.43
17607;BME280;69222;52.242;20.980;2023-07-22T03:27:21;99631.44;;;18.59;69.41
17607;BME280;69222;52.242;20.980;2023-07-22T03:29:49;99630.44;;;18.62;69.64
17607;BME280;69222;52.242;20.980;2023-07-22T03:32:17;99641.50;;;18.67;69.32
17607;BME280;69222;52.242;20.980;2023-07-22T03:34:45;99645.94;;;18.65;69.34
17607;BME280;69222;52.242;20.980;2023-07-22T03:37:13;99645.69;;;18.70;69.30
17607;BME280;69222;52.242;20.980;2023-07-22T03:39:42;99644.00;;;18.69;69.38
17607;BME280;69222;52.242;20.980;2023-07-22T03:42:10;99641.50;;;18.67;69.65
17607;BME280;69222;52.242;20.980;2023-07-22T03:44:38;99647.47;;;18.69;69.72
17607;BME280;69222;52.242;20.980;2023-07-22T03:47:07;99637.84;;;18.71;69.55
17607;BME280;69222;52.242;20.980;2023-07-22T03:49:35;99640.47;;;18.70;69.60
17607;BME280;69222;52.242;20.980;2023-07-22T03:52:03;99651.75;;;18.70;69.78
17607;BME280;69222;52.242;20.980;2023-07-22T03:54:32;99653.66;;;18.67;69.95
17607;BME280;69222;52.242;20.980;2023-07-22T03:57:01;99654.59;;;18.66;70.14
17607;BME280;69222;52.242;20.980;2023-07-22T03:59:29;99651.06;;;18.67;70.12
17607;BME280;69222;52.242;20.980;2023-07-22T04:01:57;99653.84;;;18.64;70.30
17607;BME280;69222;52.242;20.980;2023-07-22T04:04:25;99654.06;;;18.59;70.83
17607;BME280;69222;52.242;20.980;2023-07-22T04:06:52;99650.56;;;18.60;70.64
17607;BME280;69222;52.242;20.980;2023-07-22T04:09:20;99654.44;;;18.69;70.92
17607;BME280;69222;52.242;20.980;2023-07-22T04:11:48;99651.56;;;18.75;70.30
17607;BME280;69222;52.242;20.980;2023-07-22T04:14:18;99646.09;;;18.79;70.29
17607;BME280;69222;52.242;20.980;2023-07-22T04:16:46;99652.69;;;18.87;70.06
17607;BME280;69222;52.242;20.980;2023-07-22T04:19:15;99646.28;;;18.92;69.67
17607;BME280;69222;52.242;20.980;2023-07-22T04:21:43;99651.09;;;19.00;69.46
17607;BME280;69222;52.242;20.980;2023-07-22T04:24:11;99649.44;;;18.99;68.98
17607;BME280;69222;52.242;20.980;2023-07-22T04:26:41;99648.50;;;19.00;69.33
17607;BME280;69222;52.242;20.980;2023-07-22T04:29:09;99658.72;;;19.04;68.94
17607;BME280;69222;52.242;20.980;2023-07-22T04:31:40;99654.34;;;19.05;68.63
17607;BME280;69222;52.242;20.980;2023-07-22T04:34:07;99660.31;;;19.07;68.76
17607;BME280;69222;52.242;20.980;2023-07-22T04:36:35;99661.25;;;19.06;68.72
17607;BME280;69222;52.242;20.980;2023-07-22T04:39:03;99658.72;;;19.04;68.77
17607;BME280;69222;52.242;20.980;2023-07-22T04:41:32;99668.91;;;19.09;68.96
17607;BME280;69222;52.242;20.980;2023-07-22T04:44:00;99658.63;;;19.06;68.59
17607;BME280;69222;52.242;20.980;2023-07-22T04:46:28;99676.84;;;19.08;69.13
17607;BME280;69222;52.242;20.980;2023-07-22T04:48:58;99669.22;;;19.03;68.34
17607;BME280;69222;52.242;20.980;2023-07-22T04:51:26;99683.72;;;18.93;69.26
17607;BME280;69222;52.242;20.980;2023-07-22T04:53:54;99671.81;;;18.87;69.04
17607;BME280;69222;52.242;20.980;2023-07-22T04:56:22;99671.22;;;18.82;69.42
17607;BME280;69222;52.242;20.980;2023-07-22T04:58:51;99678.03;;;18.85;69.55
17607;BME280;69222;52.242;20.980;2023-07-22T05:01:19;99684.19;;;18.83;69.64
17607;BME280;69222;52.242;20.980;2023-07-22T05:03:47;99680.88;;;18.80;70.14
17607;BME280;69222;52.242;20.980;2023-07-22T05:06:16;99691.56;;;18.75;70.17
17607;BME280;69222;52.242;20.980;2023-07-22T05:08:44;99690.88;;;18.72;70.26
17607;BME280;69222;52.242;20.980;2023-07-22T05:11:12;99699.75;;;18.68;70.53
17607;BME280;69222;52.242;20.980;2023-07-22T05:13:40;99702.50;;;18.65;70.78
17607;BME280;69222;52.242;20.980;2023-07-22T05:16:08;99706.09;;;18.62;71.25
17607;BME280;69222;52.242;20.980;2023-07-22T05:18:36;99708.72;;;18.62;71.43
17607;BME280;69222;52.242;20.980;2023-07-22T05:21:05;99708.84;;;18.59;71.65
17607;BME280;69222;52.242;20.980;2023-07-22T05:23:34;99712.41;;;18.58;71.44
17607;BME280;69222;52.242;20.980;2023-07-22T05:26:03;99716.88;;;18.56;71.41
17607;BME280;69222;52.242;20.980;2023-07-22T05:28:31;99713.34;;;18.57;71.58
17607;BME280;69222;52.242;20.980;2023-07-22T05:30:58;99711.31;;;18.62;71.43
17607;BME280;69222;52.242;20.980;2023-07-22T05:33:26;99719.84;;;18.66;70.99
17607;BME280;69222;52.242;20.980;2023-07-22T05:35:54;99711.31;;;18.62;70.55
17607;BME280;69222;52.242;20.980;2023-07-22T05:38:23;99706.09;;;18.62;70.78
17607;BME280;69222;52.242;20.980;2023-07-22T05:40:52;99705.13;;;18.65;70.57
17607;BME280;69222;52.242;20.980;2023-07-22T05:43:20;99712.94;;;18.65;70.60
17607;BME280;69222;52.242;20.980;2023-07-22T05:45:48;99716.25;;;18.68;70.63
17607;BME280;69222;52.242;20.980;2023-07-22T05:48:16;99713.63;;;18.68;70.43
17607;BME280;69222;52.242;20.980;2023-07-22T05:50:44;99711.97;;;18.67;70.54
17607;BME280;69222;52.242;20.980;2023-07-22T05:53:12;99713.63;;;18.68;70.28
17607;BME280;69222;52.242;20.980;2023-07-22T05:55:40;99712.72;;;18.69;70.29
17607;BME280;69222;52.242;20.980;2023-07-22T05:58:16;99716.13;;;18.71;70.52
17607;BME280;69222;52.242;20.980;2023-07-22T06:00:45;99728.69;;;18.80;70.27
17607;BME280;69222;52.242;20.980;2023-07-22T06:03:13;99717.88;;;18.88;69.81
17607;BME280;69222;52.242;20.980;2023-07-22T06:05:41;99718.56;;;18.92;69.26
17607;BME280;69222;52.242;20.980;2023-07-22T06:08:09;99721.94;;;18.94;69.23
17607;BME280;69222;52.242;20.980;2023-07-22T06:10:37;99730.38;;;18.99;69.11
17607;BME280;69222;52.242;20.980;2023-07-22T06:13:05;99719.63;;;19.05;68.68
17607;BME280;69222;52.242;20.980;2023-07-22T06:15:35;99717.59;;;19.10;68.42
17607;BME280;69222;52.242;20.980;2023-07-22T06:18:03;99719.38;;;19.10;68.36
17607;BME280;69222;52.242;20.980;2023-07-22T06:20:34;99720.00;;;19.15;68.23
17607;BME280;69222;52.242;20.980;2023-07-22T06:23:02;99724.00;;;19.38;67.83
17607;BME280;69222;52.242;20.980;2023-07-22T06:25:30;99728.88;;;19.77;66.98
17607;BME280;69222;52.242;20.980;2023-07-22T06:27:58;99718.94;;;19.84;65.27
17607;BME280;69222;52.242;20.980;2023-07-22T06:30:26;99724.16;;;19.84;65.04
17607;BME280;69222;52.242;20.980;2023-07-22T06:32:56;99725.44;;;19.76;65.27
17607;BME280;69222;52.242;20.980;2023-07-22T06:35:24;99720.09;;;19.62;65.56
17607;BME280;69222;52.242;20.980;2023-07-22T06:37:52;99732.84;;;19.68;65.53
17607;BME280;69222;52.242;20.980;2023-07-22T06:40:20;99727.72;;;19.83;65.05
17607;BME280;69222;52.242;20.980;2023-07-22T06:42:48;99727.03;;;19.95;63.47
17607;BME280;69222;52.242;20.980;2023-07-22T06:45:16;99729.47;;;20.14;62.29
17607;BME280;69222;52.242;20.980;2023-07-22T06:47:44;99723.84;;;20.36;61.92
17607;BME280;69222;52.242;20.980;2023-07-22T06:50:15;99729.56;;;20.58;61.45
17607;BME280;69222;52.242;20.980;2023-07-22T06:52:43;99741.25;;;20.83;60.08
17607;BME280;69222;52.242;20.980;2023-07-22T06:55:11;99743.88;;;20.83;59.27
17607;BME280;69222;52.242;20.980;2023-07-22T06:57:40;99755.63;;;20.75;59.10
17607;BME280;69222;52.242;20.980;2023-07-22T07:00:09;99742.50;;;20.61;58.94
17607;BME280;69222;52.242;20.980;2023-07-22T07:02:37;99745.97;;;20.46;58.71
17607;BME280;69222;52.242;20.980;2023-07-22T07:05:06;99752.47;;;20.39;58.74
17607;BME280;69222;52.242;20.980;2023-07-22T07:07:35;99753.41;;;20.38;58.93
17607;BME280;69222;52.242;20.980;2023-07-22T07:10:03;99749.44;;;20.31;58.05
17607;BME280;69222;52.242;20.980;2023-07-22T07:12:32;99748.69;;;20.28;57.69
17607;BME280;69222;52.242;20.980;2023-07-22T07:15:00;99752.16;;;20.29;57.44
17607;BME280;69222;52.242;20.980;2023-07-22T07:17:28;99754.34;;;20.37;57.63
17607;BME280;69222;52.242;20.980;2023-07-22T07:19:56;99768.44;;;20.50;57.73
17607;BME280;69222;52.242;20.980;2023-07-22T07:22:25;99761.66;;;20.62;57.18
17607;BME280;69222;52.242;20.980;2023-07-22T07:24:54;99766.66;;;20.66;57.00
17607;BME280;69222;52.242;20.980;2023-07-22T07:27:22;99766.19;;;20.74;57.19
17607;BME280;69222;52.242;20.980;2023-07-22T07:29:50;99773.28;;;21.02;56.16
17607;BME280;69222;52.242;20.980;2023-07-22T07:32:20;99770.88;;;21.28;55.40
17607;BME280;69222;52.242;20.980;2023-07-22T07:34:50;99772.56;;;22.00;54.25
17607;BME280;69222;52.242;20.980;2023-07-22T07:37:18;99762.97;;;23.07;51.85
17607;BME280;69222;52.242;20.980;2023-07-22T07:39:46;99761.81;;;24.12;48.60
17607;BME280;69222;52.242;20.980;2023-07-22T07:42:15;99767.66;;;25.45;46.79
17607;BME280;69222;52.242;20.980;2023-07-22T07:44:43;99759.84;;;27.17;42.16
17607;BME280;69222;52.242;20.980;2023-07-22T07:47:11;99770.88;;;29.02;37.56
17607;BME280;69222;52.242;20.980;2023-07-22T07:49:39;99772.81;;;30.29;34.39
17607;BME280;69222;52.242;20.980;2023-07-22T07:52:07;99769.88;;;31.12;32.46
17607;BME280;69222;52.242;20.980;2023-07-22T07:54:35;99769.66;;;31.58;31.26
17607;BME280;69222;52.242;20.980;2023-07-22T07:57:04;99769.47;;;31.59;31.70
17607;BME280;69222;52.242;20.980;2023-07-22T07:59:34;99777.88;;;32.31;29.36
17607;BME280;69222;52.242;20.980;2023-07-22T08:02:05;99783.44;;;31.01;30.16
17607;BME280;69222;52.242;20.980;2023-07-22T08:04:36;99783.84;;;30.52;31.35
17607;BME280;69222;52.242;20.980;2023-07-22T08:07:06;99791.81;;;30.70;31.56
17607;BME280;69222;52.242;20.980;2023-07-22T08:09:34;99787.03;;;30.56;30.38
17607;BME280;69222;52.242;20.980;2023-07-22T08:12:03;99800.47;;;29.91;31.18
17607;BME280;69222;52.242;20.980;2023-07-22T08:14:31;99794.97;;;29.18;32.72
17607;BME280;69222;52.242;20.980;2023-07-22T08:17:01;99805.03;;;27.87;35.04
17607;BME280;69222;52.242;20.980;2023-07-22T08:19:30;99813.13;;;26.92;36.25
17607;BME280;69222;52.242;20.980;2023-07-22T08:21:58;99809.00;;;26.12;37.91
17607;BME280;69222;52.242;20.980;2023-07-22T08:24:26;99818.16;;;25.52;39.18
17607;BME280;69222;52.242;20.980;2023-07-22T08:26:54;99821.72;;;24.69;41.32
17607;BME280;69222;52.242;20.980;2023-07-22T08:29:22;99826.75;;;24.11;41.07
17607;BME280;69222;52.242;20.980;2023-07-22T08:31:50;99824.69;;;23.66;42.02
17607;BME280;69222;52.242;20.980;2023-07-22T08:34:20;99832.69;;;23.51;43.02
17607;BME280;69222;52.242;20.980;2023-07-22T08:36:48;99835.41;;;23.37;42.76
17607;BME280;69222;52.242;20.980;2023-07-22T08:39:16;99822.69;;;23.05;44.20
17607;BME280;69222;52.242;20.980;2023-07-22T08:41:47;99831.84;;;23.12;44.66
17607;BME280;69222;52.242;20.980;2023-07-22T08:44:19;99830.59;;;23.31;44.29
17607;BME280;69222;52.242;20.980;2023-07-22T08:46:53;99832.38;;;23.43;43.93
17607;BME280;69222;52.242;20.980;2023-07-22T08:49:25;99834.50;;;23.51;43.27
17607;BME280;69222;52.242;20.980;2023-07-22T08:51:55;99842.38;;;23.51;41.97
17607;BME280;69222;52.242;20.980;2023-07-22T08:54:24;99839.94;;;23.48;42.16
17607;BME280;69222;52.242;20.980;2023-07-22T08:56:53;99844.25;;;23.49;42.28
17607;BME280;69222;52.242;20.980;2023-07-22T08:59:21;99843.00;;;23.54;42.58
17607;BME280;69222;52.242;20.980;2023-07-22T09:01:50;99842.50;;;23.49;43.10
17607;BME280;69222;52.242;20.980;2023-07-22T09:04:19;99855.00;;;23.46;44.01
17607;BME280;69222;52.242;20.980;2023-07-22T09:06:49;99856.03;;;23.30;43.68
17607;BME280;69222;52.242;20.980;2023-07-22T09:09:17;99857.94;;;23.28;44.24
17607;BME280;69222;52.242;20.980;2023-07-22T09:11:45;99851.00;;;23.27;44.51
17607;BME280;69222;52.242;20.980;2023-07-22T09:14:15;99852.03;;;23.37;44.61
17607;BME280;69222;52.242;20.980;2023-07-22T09:17:03;99856.69;;;23.59;44.06
17607;BME280;69222;52.242;20.980;2023-07-22T09:19:31;99843.13;;;23.53;43.28
17607;BME280;69222;52.242;20.980;2023-07-22T09:22:01;99855.00;;;23.58;44.09
17607;BME280;69222;52.242;20.980;2023-07-22T09:24:29;99845.56;;;23.69;43.87
17607;BME280;69222;52.242;20.980;2023-07-22T09:26:58;99861.66;;;23.77;43.10
17607;BME280;69222;52.242;20.980;2023-07-22T09:29:34;99866.78;;;23.40;43.56
17607;BME280;69222;52.242;20.980;2023-07-22T09:32:03;99869.34;;;23.14;44.34
17607;BME280;69222;52.242;20.980;2023-07-22T09:34:31;99860.94;;;23.09;44.84
17607;BME280;69222;52.242;20.980;2023-07-22T09:37:00;99855.34;;;23.01;44.15
17607;BME280;69222;52.242;20.980;2023-07-22T09:39:30;99852.44;;;23.19;43.84
17607;BME280;69222;52.242;20.980;2023-07-22T09:41:58;99859.94;;;23.50;42.76
17607;BME280;69222;52.242;20.980;2023-07-22T09:44:30;99863.22;;;23.54;42.46
17607;BME280;69222;52.242;20.980;2023-07-22T09:46:58;99861.00;;;23.60;42.81
17607;BME280;69222;52.242;20.980;2023-07-22T09:49:33;99860.66;;;24.03;41.07
17607;BME280;69222;52.242;20.980;2023-07-22T09:52:09;99862.41;;;25.13;39.34
17607;BME280;69222;52.242;20.980;2023-07-22T09:54:46;99863.72;;;26.33;36.89
17607;BME280;69222;52.242;20.980;2023-07-22T09:57:15;99867.84;;;26.25;36.71
17607;BME280;69222;52.242;20.980;2023-07-22T09:59:43;99868.09;;;25.89;37.17
17607;BME280;69222;52.242;20.980;2023-07-22T10:02:11;99880.28;;;25.21;38.61
17607;BME280;69222;52.242;20.980;2023-07-22T10:04:39;99876.00;;;25.31;38.67
17607;BME280;69222;52.242;20.980;2023-07-22T10:07:09;99880.69;;;26.08;35.90
17607;BME280;69222;52.242;20.980;2023-07-22T10:09:38;99882.13;;;26.12;34.86
17607;BME280;69222;52.242;20.980;2023-07-22T10:12:07;99880.94;;;26.05;33.69
17607;BME280;69222;52.242;20.980;2023-07-22T10:14:36;99893.69;;;26.65;33.00
17607;BME280;69222;52.242;20.980;2023-07-22T10:17:05;99878.56;;;27.53;30.70
17607;BME280;69222;52.242;20.980;2023-07-22T10:19:36;99882.72;;;28.37;29.62
17607;BME280;69222;52.242;20.980;2023-07-22T10:22:05;99876.28;;;29.09;28.52
17607;BME280;69222;52.242;20.980;2023-07-22T10:24:36;99876.25;;;29.00;28.77
17607;BME280;69222;52.242;20.980;2023-07-22T10:27:05;99876.19;;;29.48;28.98
17607;BME280;69222;52.242;20.980;2023-07-22T10:29:34;99871.53;;;29.79;28.12
17607;BME280;69222;52.242;20.980;2023-07-22T10:32:03;99861.47;;;30.56;27.92
17607;BME280;69222;52.242;20.980;2023-07-22T10:34:31;99862.19;;;31.82;26.15
17607;BME280;69222;52.242;20.980;2023-07-22T10:36:59;99867.41;;;32.34;25.04
17607;BME280;69222;52.242;20.980;2023-07-22T10:39:28;99871.31;;;32.56;24.22
17607;BME280;69222;52.242;20.980;2023-07-22T10:42:01;99874.78;;;31.71;24.77
17607;BME280;69222;52.242;20.980;2023-07-22T10:44:32;99865.56;;;30.05;26.49
17607;BME280;69222;52.242;20.980;2023-07-22T10:47:00;99876.38;;;28.88;28.50
17607;BME280;69222;52.242;20.980;2023-07-22T10:49:43;99884.69;;;27.53;30.00
17607;BME280;69222;52.242;20.980;2023-07-22T10:52:11;99886.16;;;26.38;32.54
17607;BME280;69222;52.242;20.980;2023-07-22T10:54:41;99886.81;;;25.97;33.26
17607;BME280;69222;52.242;20.980;2023-07-22T10:57:25;99893.34;;;25.58;34.96
17607;BME280;69222;52.242;20.980;2023-07-22T10:59:55;99893.72;;;25.64;34.69
17607;BME280;69222;52.242;20.980;2023-07-22T11:02:25;99886.56;;;26.88;32.96
17607;BME280;69222;52.242;20.980;2023-07-22T11:04:56;99873.19;;;28.25;30.32
17607;BME280;69222;52.242;20.980;2023-07-22T11:07:30;99877.22;;;29.08;29.34
17607;BME280;69222;52.242;20.980;2023-07-22T11:10:11;99874.88;;;29.81;27.96
17607;BME280;69222;52.242;20.980;2023-07-22T11:12:42;99880.50;;;30.06;26.44
17607;BME280;69222;52.242;20.980;2023-07-22T11:15:11;99876.34;;;29.47;26.48
17607;BME280;69222;52.242;20.980;2023-07-22T11:17:42;99881.69;;;28.69;27.69
17607;BME280;69222;52.242;20.980;2023-07-22T11:20:10;99879.69;;;28.11;28.94
17607;BME280;69222;52.242;20.980;2023-07-22T11:22:39;99890.44;;;27.37;29.93
17607;BME280;69222;52.242;20.980;2023-07-22T11:25:08;99893.88;;;26.53;31.17
17607;BME280;69222;52.242;20.980;2023-07-22T11:27:36;99885.22;;;26.50;31.58
17607;BME280;69222;52.242;20.980;2023-07-22T11:30:07;99889.50;;;26.95;30.96
17607;BME280;69222;52.242;20.980;2023-07-22T11:32:42;99886.81;;;27.59;30.66
17607;BME280;69222;52.242;20.980;2023-07-22T11:35:10;99897.56;;;28.59;29.56
17607;BME280;69222;52.242;20.980;2023-07-22T11:37:38;99879.31;;;29.05;28.59
17607;BME280;69222;52.242;20.980;2023-07-22T11:40:07;99879.28;;;29.44;29.29
17607;BME280;69222;52.242;20.980;2023-07-22T11:42:38;99880.81;;;29.66;28.06
17607;BME280;69222;52.242;20.980;2023-07-22T11:45:08;99873.72;;;28.88;29.25
17607;BME280;69222;52.242;20.980;2023-07-22T11:47:37;99891.16;;;27.81;30.69
17607;BME280;69222;52.242;20.980;2023-07-22T11:50:06;99877.69;;;26.78;32.57
17607;BME280;69222;52.242;20.980;2023-07-22T11:52:34;99894.09;;;25.71;34.67
17607;BME280;69222;52.242;20.980;2023-07-22T11:55:02;99893.47;;;25.21;35.99
17607;BME280;69222;52.242;20.980;2023-07-22T11:57:31;99887.81;;;24.90;35.98
17607;BME280;69222;52.242;20.980;2023-07-22T11:59:58;99895.69;;;24.79;36.57
17607;BME280;69222;52.242;20.980;2023-07-22T12:02:28;99887.81;;;24.66;37.28
17607;BME280;69222;52.242;20.980;2023-07-22T12:05:01;99874.00;;;24.63;37.31
17607;BME280;69222;52.242;20.980;2023-07-22T12:07:30;99876.25;;;24.80;37.46
17607;BME280;69222;52.242;20.980;2023-07-22T12:10:01;99888.09;;;24.98;37.26
17607;BME280;69222;52.242;20.980;2023-07-22T12:12:33;99880.22;;;25.10;36.30
17607;BME280;69222;52.242;20.980;2023-07-22T12:15:03;99886.91;;;25.02;36.39
17607;BME280;69222;52.242;20.980;2023-07-22T12:17:45;99875.19;;;25.06;35.14
17607;BME280;69222;52.242;20.980;2023-07-22T12:20:14;99867.03;;;25.10;34.72
17607;BME280;69222;52.242;20.980;2023-07-22T12:22:42;99865.19;;;25.12;33.28
17607;BME280;69222;52.242;20.980;2023-07-22T12:25:10;99872.13;;;25.13;33.93
17607;BME280;69222;52.242;20.980;2023-07-22T12:27:39;99870.44;;;25.12;33.47
17607;BME280;69222;52.242;20.980;2023-07-22T12:30:08;99862.00;;;25.06;33.46
17607;BME280;69222;52.242;20.980;2023-07-22T12:32:37;99871.28;;;24.88;33.37
17607;BME280;69222;52.242;20.980;2023-07-22T12:35:08;99868.31;;;24.69;34.28
17607;BME280;69222;52.242;20.980;2023-07-22T12:37:36;99876.28;;;24.56;33.91
17607;BME280;69222;52.242;20.980;2023-07-22T12:40:08;99863.88;;;24.45;33.20
17607;BME280;69222;52.242;20.980;2023-07-22T12:42:39;99869.72;;;24.62;32.67
17607;BME280;69222;52.242;20.980;2023-07-22T12:45:08;99879.25;;;24.75;32.40
17607;BME280;69222;52.242;20.980;2023-07-22T12:47:37;99854.63;;;24.88;31.63
17607;BME280;69222;52.242;20.980;2023-07-22T12:50:07;99860.66;;;25.01;31.14
17607;BME280;69222;52.242;20.980;2023-07-22T12:52:35;99861.16;;;24.71;31.20
17607;BME280;69222;52.242;20.980;2023-07-22T12:55:04;99852.09;;;24.62;32.49
17607;BME280;69222;52.242;20.980;2023-07-22T12:57:32;99865.63;;;24.57;32.03
17607;BME280;69222;52.242;20.980;2023-07-22T13:00:00;99853.69;;;24.65;31.95